createdAt,value
2018-12-30T00:00:09.414Z,100081.65
2018-12-30T00:02:37.815Z,100083.03
2018-12-30T00:05:04.611Z,100074.08
2018-12-30T00:07:31.147Z,100069.72
2018-12-30T00:09:57.298Z,100060.84
2018-12-30T00:12:23.436Z,100070.77
2018-12-30T00:14:49.531Z,100062.45
2018-12-30T00:17:15.970Z,100068.64
2018-12-30T00:19:42.307Z,100062.56
2018-12-30T00:22:09.191Z,100060.91
2018-12-30T00:24:35.278Z,100056.86
2018-12-30T00:27:01.379Z,100058.70
2018-12-30T00:29:27.518Z,100059.23
2018-12-30T00:31:53.910Z,100059.42
2018-12-30T00:34:20.339Z,100050.44
2018-12-30T00:36:46.667Z,100057.94
2018-12-30T00:39:13.183Z,100056.58
2018-12-30T00:41:39.544Z,100064.69
2018-12-30T00:44:05.671Z,100058.45
2018-12-30T00:46:32.017Z,100062.00
2018-12-30T00:48:58.158Z,100068.98
2018-12-30T00:51:24.230Z,100071.27
2018-12-30T00:53:50.355Z,100071.28
2018-12-30T00:56:16.864Z,100075.30
2018-12-30T00:58:43.422Z,100075.84
2018-12-30T01:01:09.792Z,100080.47
2018-12-30T01:03:35.926Z,100084.58
2018-12-30T01:06:02.327Z,100076.83
2018-12-30T01:08:28.698Z,100088.83
2018-12-30T01:10:55.092Z,100079.19
2018-12-30T01:13:21.836Z,100069.90
2018-12-30T01:15:48.360Z,100074.86
2018-12-30T01:18:14.908Z,100080.69
2018-12-30T01:20:40.975Z,100084.25
2018-12-30T01:23:07.495Z,100081.13
2018-12-30T01:25:33.898Z,100068.84
2018-12-30T01:28:00.009Z,100064.62
2018-12-30T01:30:26.316Z,100073.52
2018-12-30T01:32:52.451Z,100084.06
2018-12-30T01:35:19.125Z,100077.78
2018-12-30T01:37:45.656Z,100084.44
2018-12-30T01:40:12.086Z,100074.55
2018-12-30T01:42:38.181Z,100074.04
2018-12-30T01:45:04.639Z,100073.20
2018-12-30T01:47:30.739Z,100075.77
2018-12-30T01:49:56.837Z,100082.84
2018-12-30T01:52:23.214Z,100072.34
2018-12-30T01:54:49.662Z,100071.14
2018-12-30T01:57:16.088Z,100077.48
2018-12-30T01:59:42.530Z,100076.79
2018-12-30T02:02:09.484Z,100077.36
2018-12-30T02:04:35.569Z,100068.92
2018-12-30T02:07:01.673Z,100065.98
2018-12-30T02:09:27.770Z,100066.36
2018-12-30T02:11:55.038Z,100062.06
2018-12-30T02:14:21.443Z,100063.06
2018-12-30T02:16:47.829Z,100072.17
2018-12-30T02:19:13.952Z,100064.13
2018-12-30T02:21:41.245Z,100073.46
2018-12-30T02:24:07.564Z,100060.47
2018-12-30T02:26:33.643Z,100064.96
2018-12-30T02:29:00.038Z,100070.45
2018-12-30T02:31:26.504Z,100063.50
2018-12-30T02:33:53.029Z,100068.16
2018-12-30T02:36:19.133Z,100058.78
2018-12-30T02:38:45.218Z,100061.25
2018-12-30T02:41:11.306Z,100050.44
2018-12-30T02:43:37.409Z,100049.57
2018-12-30T02:46:03.501Z,100051.91
2018-12-30T02:48:29.884Z,100052.69
2018-12-30T02:50:56.011Z,100056.11
2018-12-30T02:53:22.087Z,100052.35
2018-12-30T02:55:48.207Z,100045.97
2018-12-30T02:58:14.559Z,100044.69
2018-12-30T03:00:40.618Z,100041.82
2018-12-30T03:03:07.723Z,100035.08
2018-12-30T03:05:34.194Z,100036.82
2018-12-30T03:08:00.626Z,100040.25
2018-12-30T03:10:26.737Z,100043.24
2018-12-30T03:12:53.185Z,100036.02
2018-12-30T03:15:19.293Z,100036.20
2018-12-30T03:17:45.757Z,100035.81
2018-12-30T03:20:11.847Z,100034.30
2018-12-30T03:22:37.955Z,100040.85
2018-12-30T03:25:04.308Z,100030.96
2018-12-30T03:27:30.332Z,100029.02
2018-12-30T03:29:56.688Z,100025.20
2018-12-30T03:32:22.696Z,100023.16
2018-12-30T03:34:49.154Z,100020.45
2018-12-30T03:37:15.558Z,100027.63
2018-12-30T03:39:41.584Z,100014.95
2018-12-30T03:42:07.671Z,100020.84
2018-12-30T03:44:33.701Z,100013.78
2018-12-30T03:46:59.777Z,100012.63
2018-12-30T03:49:26.199Z,100014.06
2018-12-30T03:51:52.541Z,100005.23
2018-12-30T03:54:18.609Z,100001.11
2018-12-30T03:56:44.670Z,100007.88
2018-12-30T03:59:11.121Z,100010.95
2018-12-30T04:01:37.447Z,100004.27
2018-12-30T04:04:03.574Z,100007.95
2018-12-30T04:06:29.689Z,100006.72
2018-12-30T04:08:56.130Z,100014.66
2018-12-30T04:11:22.164Z,100004.19
2018-12-30T04:13:48.194Z,100007.53
2018-12-30T04:16:14.322Z,100018.78
2018-12-30T04:18:40.413Z,100015.34
2018-12-30T04:21:06.546Z,100013.38
2018-12-30T04:23:32.889Z,100022.69
2018-12-30T04:25:58.928Z,100024.35
2018-12-30T04:28:24.955Z,100025.96
2018-12-30T04:30:51.062Z,100021.41
2018-12-30T04:33:17.201Z,100017.09
2018-12-30T04:35:43.630Z,100016.79
2018-12-30T04:38:09.660Z,100023.14
2018-12-30T04:40:35.745Z,100024.84
2018-12-30T04:43:01.783Z,100018.59
2018-12-30T04:45:27.878Z,100022.95
2018-12-30T04:47:54.374Z,100031.02
2018-12-30T04:50:20.458Z,100031.20
2018-12-30T04:52:46.489Z,100025.41
2018-12-30T04:55:12.516Z,100031.26
2018-12-30T04:57:38.908Z,100033.00
2018-12-30T05:00:04.957Z,100032.91
2018-12-30T05:02:31.052Z,100032.98
2018-12-30T05:04:57.352Z,100035.50
2018-12-30T05:07:23.681Z,100037.17
2018-12-30T05:09:50.125Z,100039.70
2018-12-30T05:12:16.238Z,100052.38
2018-12-30T05:14:42.344Z,100047.33
2018-12-30T05:17:08.502Z,100052.45
2018-12-30T05:19:34.691Z,100057.23
2018-12-30T05:22:00.758Z,100060.59
2018-12-30T05:24:26.831Z,100060.53
2018-12-30T05:26:52.960Z,100072.00
2018-12-30T05:29:19.066Z,100075.91
2018-12-30T05:31:45.182Z,100082.23
2018-12-30T05:34:11.202Z,100088.46
2018-12-30T05:36:37.502Z,100096.91
2018-12-30T05:39:03.533Z,100099.44
2018-12-30T05:41:29.976Z,100112.90
2018-12-30T05:43:56.009Z,100099.36
2018-12-30T05:46:22.112Z,100111.51
2018-12-30T05:48:48.215Z,100101.59
2018-12-30T05:51:14.689Z,100114.67
2018-12-30T05:53:41.107Z,100118.87
2018-12-30T05:56:07.149Z,100128.52
2018-12-30T05:58:33.580Z,100123.45
2018-12-30T06:00:59.999Z,100133.64
2018-12-30T06:03:26.084Z,100149.99
2018-12-30T06:05:52.587Z,100150.89
2018-12-30T06:08:18.681Z,100163.53
2018-12-30T06:10:44.768Z,100166.17
2018-12-30T06:13:10.865Z,100179.93
2018-12-30T06:15:37.201Z,100186.67
2018-12-30T06:18:03.320Z,100178.19
2018-12-30T06:20:29.438Z,100195.98
2018-12-30T06:22:55.522Z,100195.09
2018-12-30T06:25:21.522Z,100197.63
2018-12-30T06:27:47.829Z,100200.98
2018-12-30T06:30:13.904Z,100218.57
2018-12-30T06:32:40.216Z,100222.43
2018-12-30T06:35:06.319Z,100230.75
2018-12-30T06:37:32.414Z,100236.41
2018-12-30T06:39:58.440Z,100245.06
2018-12-30T06:42:24.469Z,100249.97
2018-12-30T06:44:50.486Z,100251.78
2018-12-30T06:47:16.781Z,100261.35
2018-12-30T06:49:42.866Z,100263.77
2018-12-30T06:52:09.223Z,100276.86
2018-12-30T06:54:35.301Z,100276.33
2018-12-30T06:57:01.337Z,100274.65
2018-12-30T06:59:27.687Z,100289.56
2018-12-30T07:01:53.796Z,100295.05
2018-12-30T07:04:19.917Z,100299.75
2018-12-30T07:06:45.990Z,100298.36
2018-12-30T07:09:12.392Z,100297.52
2018-12-30T07:11:38.426Z,100309.94
2018-12-30T07:14:04.753Z,100317.34
2018-12-30T07:16:31.112Z,100325.77
2018-12-30T07:18:57.267Z,100324.63
2018-12-30T07:21:23.409Z,100328.23
2018-12-30T07:23:49.944Z,100335.62
2018-12-30T07:26:16.040Z,100340.56
2018-12-30T07:28:42.173Z,100326.15
2018-12-30T07:31:08.329Z,100347.16
2018-12-30T07:33:34.372Z,100348.72
2018-12-30T07:36:00.769Z,100352.07
2018-12-30T07:38:26.869Z,100358.77
2018-12-30T07:40:52.898Z,100355.72
2018-12-30T07:43:19.287Z,100358.09
2018-12-30T07:45:45.439Z,100363.55
2018-12-30T07:48:11.543Z,100365.44
2018-12-30T07:50:37.637Z,100373.51
2018-12-30T07:53:04.190Z,100384.97
2018-12-30T07:55:30.272Z,100382.86
2018-12-30T07:57:56.303Z,100387.59
2018-12-30T08:00:24.577Z,100379.04
2018-12-30T08:02:50.668Z,100392.41
2018-12-30T08:05:16.783Z,100405.27
2018-12-30T08:07:43.130Z,100394.96
2018-12-30T08:10:09.225Z,100414.20
2018-12-30T08:12:35.329Z,100425.86
2018-12-30T08:15:01.427Z,100421.86
2018-12-30T08:17:27.823Z,100424.48
2018-12-30T08:19:53.945Z,100433.87
2018-12-30T08:22:20.330Z,100440.09
2018-12-30T08:24:46.419Z,100453.73
2018-12-30T08:27:12.576Z,100451.09
2018-12-30T08:29:38.715Z,100453.38
2018-12-30T08:32:04.785Z,100464.37
2018-12-30T08:34:30.863Z,100459.77
2018-12-30T08:36:56.952Z,100471.67
2018-12-30T08:39:23.151Z,100466.20
2018-12-30T08:41:49.201Z,100488.90
2018-12-30T08:44:15.299Z,100492.76
2018-12-30T08:46:41.434Z,100506.34
2018-12-30T08:49:07.852Z,100511.28
2018-12-30T08:51:34.383Z,100515.98
2018-12-30T08:54:00.587Z,100532.81
2018-12-30T08:56:26.757Z,100530.06
2018-12-30T08:58:52.867Z,100528.87
2018-12-30T09:01:19.247Z,100537.45
2018-12-30T09:03:45.351Z,100547.57
2018-12-30T09:06:11.547Z,100558.69
2018-12-30T09:08:37.579Z,100553.64
2018-12-30T09:11:03.971Z,100559.50
2018-12-30T09:13:30.361Z,100569.66
2018-12-30T09:15:56.753Z,100574.01
2018-12-30T09:18:22.810Z,100575.63
2018-12-30T09:20:52.191Z,100588.25
2018-12-30T09:23:19.293Z,100601.33
2018-12-30T09:25:45.841Z,100600.34
2018-12-30T09:28:11.932Z,100603.41
2018-12-30T09:30:38.075Z,100604.27
2018-12-30T09:33:04.446Z,100594.75
2018-12-30T09:35:30.813Z,100599.34
2018-12-30T09:37:56.931Z,100606.87
2018-12-30T09:40:23.231Z,100617.13
2018-12-30T09:42:49.296Z,100612.39
2018-12-30T09:45:15.441Z,100617.36
2018-12-30T09:47:41.539Z,100619.16
2018-12-30T09:50:07.911Z,100621.11
2018-12-30T09:52:34.332Z,100626.58
2018-12-30T09:55:00.393Z,100620.89
2018-12-30T09:57:26.486Z,100631.53
2018-12-30T09:59:52.982Z,100635.52
2018-12-30T10:02:19.065Z,100638.02
2018-12-30T10:04:45.318Z,100636.18
2018-12-30T10:07:11.731Z,100645.84
2018-12-30T10:09:38.147Z,100637.27
2018-12-30T10:12:04.251Z,100648.88
2018-12-30T10:14:30.382Z,100642.89
2018-12-30T10:16:56.462Z,100656.83
2018-12-30T10:19:22.857Z,100650.42
2018-12-30T10:21:49.255Z,100654.49
2018-12-30T10:24:15.310Z,100660.11
2018-12-30T10:26:41.628Z,100663.45
2018-12-30T10:29:07.779Z,100656.68
2018-12-30T10:31:34.128Z,100653.75
2018-12-30T10:34:00.262Z,100667.08
2018-12-30T10:36:26.539Z,100671.89
2018-12-30T10:38:52.745Z,100668.64
2018-12-30T10:41:18.814Z,100669.34
2018-12-30T10:43:53.701Z,100682.73
2018-12-30T10:49:05.004Z,100679.42
2018-12-30T10:51:31.214Z,100670.83
2018-12-30T10:54:00.796Z,100667.30
2018-12-30T10:56:25.465Z,100673.67
2018-12-30T10:58:51.601Z,100668.52
2018-12-30T11:01:17.982Z,100672.38
2018-12-30T11:03:44.426Z,100672.00
2018-12-30T11:06:10.566Z,100678.88
2018-12-30T11:08:36.680Z,100681.52
2018-12-30T11:11:02.818Z,100673.67
2018-12-30T11:13:46.993Z,100683.00
2018-12-30T11:16:13.132Z,100679.75
2018-12-30T11:18:39.550Z,100670.30
2018-12-30T11:21:06.011Z,100673.89
2018-12-30T11:23:32.521Z,100665.20
2018-12-30T11:25:58.991Z,100668.55
2018-12-30T11:28:25.498Z,100678.19
2018-12-30T11:30:51.855Z,100678.88
2018-12-30T11:33:18.395Z,100668.70
2018-12-30T11:35:44.626Z,100673.67
2018-12-30T11:38:10.761Z,100676.07
2018-12-30T11:40:37.145Z,100671.80
2018-12-30T11:43:03.511Z,100676.80
2018-12-30T11:45:29.900Z,100669.75
2018-12-30T11:47:56.026Z,100656.48
2018-12-30T11:50:22.459Z,100669.40
2018-12-30T11:52:48.950Z,100663.09
2018-12-30T11:55:15.330Z,100666.44
2018-12-30T11:57:41.444Z,100672.28
2018-12-30T12:00:07.924Z,100667.75
2018-12-30T12:02:34.440Z,100679.08
2018-12-30T12:05:00.462Z,100676.94
2018-12-30T12:07:26.585Z,100678.19
2018-12-30T12:09:52.613Z,100666.91
2018-12-30T12:12:19.041Z,100681.71
2018-12-30T12:14:45.332Z,100677.51
2018-12-30T12:17:11.706Z,100678.17
2018-12-30T12:19:39.242Z,100685.44
2018-12-30T12:22:05.306Z,100682.79
2018-12-30T12:24:31.711Z,100687.30
2018-12-30T12:26:57.836Z,100678.47
2018-12-30T12:29:23.915Z,100689.98
2018-12-30T12:31:50.278Z,100685.82
2018-12-30T12:34:17.557Z,100676.88
2018-12-30T12:36:44.086Z,100673.75
2018-12-30T12:39:10.522Z,100685.47
2018-12-30T12:41:43.812Z,100665.09
2018-12-30T12:44:09.869Z,100667.11
2018-12-30T12:46:36.562Z,100661.39
2018-12-30T12:49:02.674Z,100658.40
2018-12-30T12:51:29.025Z,100663.95
2018-12-30T12:53:55.515Z,100664.66
2018-12-30T12:56:21.654Z,100677.36
2018-12-30T12:58:48.251Z,100678.77
2018-12-30T13:01:14.677Z,100678.70
2018-12-30T13:03:40.796Z,100672.34
2018-12-30T13:06:07.398Z,100673.43
2018-12-30T13:08:33.513Z,100670.09
2018-12-30T13:10:59.636Z,100683.28
2018-12-30T13:13:25.802Z,100688.37
2018-12-30T13:15:52.201Z,100685.98
2018-12-30T13:18:18.702Z,100694.39
2018-12-30T13:20:45.296Z,100684.78
2018-12-30T13:23:12.597Z,100680.97
2018-12-30T13:25:39.071Z,100686.80
2018-12-30T13:28:05.184Z,100695.80
2018-12-30T13:30:31.336Z,100691.44
2018-12-30T13:32:57.562Z,100703.28
2018-12-30T13:35:23.645Z,100712.05
2018-12-30T13:37:50.175Z,100698.73
2018-12-30T13:40:16.362Z,100709.61
2018-12-30T13:42:42.820Z,100716.21
2018-12-30T13:45:09.222Z,100713.03
2018-12-30T13:47:35.326Z,100720.46
2018-12-30T13:50:01.577Z,100724.36
2018-12-30T13:52:27.862Z,100716.78
2018-12-30T13:54:55.258Z,100719.80
2018-12-30T13:57:23.687Z,100725.95
2018-12-30T13:59:49.851Z,100721.74
2018-12-30T14:02:16.265Z,100724.13
2018-12-30T14:04:42.392Z,100736.86
2018-12-30T14:07:08.959Z,100732.16
2018-12-30T14:09:35.870Z,100738.37
2018-12-30T14:12:01.981Z,100738.45
2018-12-30T14:14:28.334Z,100749.48
2018-12-30T14:16:54.887Z,100745.23
2018-12-30T14:19:21.339Z,100752.61
2018-12-30T14:21:47.467Z,100748.83
2018-12-30T14:24:13.596Z,100747.02
2018-12-30T14:26:40.095Z,100759.34
2018-12-30T14:29:06.299Z,100762.72
2018-12-30T14:31:32.450Z,100754.50
2018-12-30T14:33:58.848Z,100768.39
2018-12-30T14:36:24.975Z,100760.34
2018-12-30T14:38:51.105Z,100768.94
2018-12-30T14:41:17.219Z,100773.85
2018-12-30T14:43:43.382Z,100767.28
2018-12-30T14:46:09.800Z,100775.75
2018-12-30T14:48:36.213Z,100782.23
2018-12-30T14:51:02.316Z,100786.05
2018-12-30T14:53:28.474Z,100798.42
2018-12-30T14:55:55.007Z,100803.83
2018-12-30T14:58:21.550Z,100785.83
2018-12-30T15:00:47.852Z,100788.06
2018-12-30T15:03:14.219Z,100796.52
2018-12-30T15:05:40.350Z,100782.52
2018-12-30T15:08:06.532Z,100788.94
2018-12-30T15:10:32.695Z,100788.86
2018-12-30T15:12:59.044Z,100801.89
2018-12-30T15:15:25.118Z,100795.42
2018-12-30T15:17:51.333Z,100797.55
2018-12-30T15:20:17.472Z,100792.96
2018-12-30T15:22:45.439Z,100800.90
2018-12-30T15:25:12.158Z,100793.05
2018-12-30T15:27:38.368Z,100794.27
2018-12-30T15:30:07.099Z,100795.27
2018-12-30T15:32:33.613Z,100799.09
2018-12-30T15:34:59.721Z,100803.76
2018-12-30T15:37:25.790Z,100794.92
2018-12-30T15:39:52.214Z,100796.61
2018-12-30T15:42:18.967Z,100805.50
2018-12-30T15:44:45.562Z,100805.41
2018-12-30T15:47:11.753Z,100804.80
2018-12-30T15:49:38.191Z,100790.63
2018-12-30T15:52:04.266Z,100804.84
2018-12-30T15:54:30.725Z,100803.66
2018-12-30T15:56:56.842Z,100801.05
2018-12-30T15:59:22.907Z,100807.17
2018-12-30T16:01:49.076Z,100820.46
2018-12-30T16:04:15.129Z,100815.96
2018-12-30T16:06:41.288Z,100820.66
2018-12-30T16:09:07.910Z,100815.57
2018-12-30T16:11:34.190Z,100822.76
2018-12-30T16:14:00.668Z,100827.47
2018-12-30T16:16:26.874Z,100840.59
2018-12-30T16:18:53.377Z,100830.34
2018-12-30T16:21:19.509Z,100837.83
2018-12-30T16:23:45.614Z,100840.84
2018-12-30T16:26:12.018Z,100836.37
2018-12-30T16:28:38.025Z,100847.64
2018-12-30T16:31:04.141Z,100840.70
2018-12-30T16:33:30.146Z,100851.75
2018-12-30T16:35:57.298Z,100851.02
2018-12-30T16:38:23.401Z,100857.73
2018-12-30T16:40:49.976Z,100862.16
2018-12-30T16:43:16.255Z,100875.41
2018-12-30T16:45:42.661Z,100882.73
2018-12-30T16:48:08.768Z,100878.91
2018-12-30T16:53:18.210Z,100879.59
2018-12-30T16:55:43.575Z,100887.46
2018-12-30T16:58:09.737Z,100892.07
2018-12-30T17:00:36.194Z,100879.44
2018-12-30T17:03:02.229Z,100900.41
2018-12-30T17:05:28.690Z,100885.93
2018-12-30T17:07:55.099Z,100903.41
2018-12-30T17:10:21.395Z,100893.70
2018-12-30T17:12:47.472Z,100898.02
2018-12-30T17:15:13.555Z,100894.83
2018-12-30T17:17:39.671Z,100890.52
2018-12-30T17:20:06.070Z,100892.93
2018-12-30T17:22:32.161Z,100892.56
2018-12-30T17:24:58.322Z,100887.11
2018-12-30T17:27:24.735Z,100879.64
2018-12-30T17:29:50.798Z,100881.77
2018-12-30T17:32:16.993Z,100884.47
2018-12-30T17:34:43.489Z,100881.80
2018-12-30T17:37:09.588Z,100876.82
2018-12-30T17:39:35.733Z,100880.73
2018-12-30T17:42:02.012Z,100890.33
2018-12-30T17:44:28.451Z,100890.91
2018-12-30T17:46:54.661Z,100895.48
2018-12-30T17:49:20.726Z,100891.14
2018-12-30T17:51:47.233Z,100898.14
2018-12-30T17:54:15.329Z,100896.65
2018-12-30T17:56:41.429Z,100891.55
2018-12-30T17:59:07.526Z,100894.13
2018-12-30T18:01:33.632Z,100905.41
2018-12-30T18:03:59.666Z,100898.82
2018-12-30T18:06:25.705Z,100903.19
2018-12-30T18:08:51.809Z,100899.32
2018-12-30T18:11:17.885Z,100906.44
2018-12-30T18:13:43.949Z,100909.28
2018-12-30T18:16:10.062Z,100907.73
2018-12-30T18:18:36.543Z,100913.78
2018-12-30T18:21:02.929Z,100921.36
2018-12-30T18:23:29.731Z,100926.46
2018-12-30T18:25:58.682Z,100933.00
2018-12-30T18:28:23.495Z,100934.00
2018-12-30T18:30:49.589Z,100926.25
2018-12-30T18:33:17.679Z,100925.71
2018-12-30T18:35:43.693Z,100932.67
2018-12-30T18:38:09.726Z,100947.19
2018-12-30T18:40:36.270Z,100947.56
2018-12-30T18:43:02.380Z,100947.61
2018-12-30T18:45:28.397Z,100952.98
2018-12-30T18:47:54.429Z,100960.16
2018-12-30T18:50:20.834Z,100959.02
2018-12-30T18:52:46.918Z,100959.78
2018-12-30T18:55:13.024Z,100960.16
2018-12-30T18:57:39.142Z,100966.00
2018-12-30T19:00:05.527Z,100975.19
2018-12-30T19:02:31.772Z,100972.58
2018-12-30T19:04:58.203Z,100983.11
2018-12-30T19:07:24.226Z,100969.48
2018-12-30T19:09:50.255Z,100975.34
2018-12-30T19:12:16.329Z,100974.87
2018-12-30T19:14:42.437Z,100969.50
2018-12-30T19:17:08.557Z,100968.21
2018-12-30T19:19:34.582Z,100972.00
2018-12-30T19:22:00.979Z,100981.12
2018-12-30T19:24:27.080Z,100972.01
2018-12-30T19:26:53.189Z,100972.77
2018-12-30T19:29:19.574Z,100969.37
2018-12-30T19:31:45.995Z,100976.36
2018-12-30T19:34:12.069Z,100978.56
2018-12-30T19:36:38.450Z,100985.74
2018-12-30T19:39:04.557Z,100980.81
2018-12-30T19:41:30.702Z,100976.74
2018-12-30T19:43:56.762Z,100983.53
2018-12-30T19:46:22.784Z,100975.22
2018-12-30T19:48:48.825Z,100985.37
2018-12-30T19:51:15.215Z,100988.64
2018-12-30T19:53:41.647Z,100987.75
2018-12-30T19:56:07.982Z,100990.84
2018-12-30T19:58:34.411Z,100993.89
2018-12-30T20:01:02.894Z,100992.96
2018-12-30T20:03:28.944Z,100991.03
2018-12-30T20:05:55.350Z,100993.89
2018-12-30T20:08:21.839Z,100989.39
2018-12-30T20:10:48.216Z,100993.73
2018-12-30T20:13:14.278Z,100994.22
2018-12-30T20:15:40.342Z,100985.16
2018-12-30T20:18:06.777Z,100984.12
2018-12-30T20:20:33.128Z,100981.00
2018-12-30T20:23:00.432Z,100985.06
2018-12-30T20:25:26.529Z,100975.58
2018-12-30T20:27:52.552Z,100962.07
2018-12-30T20:30:18.575Z,100966.39
2018-12-30T20:32:44.606Z,100967.08
2018-12-30T20:35:11.006Z,100962.69
2018-12-30T20:37:37.365Z,100961.70
2018-12-30T20:40:03.787Z,100971.91
2018-12-30T20:42:30.216Z,100962.97
2018-12-30T20:44:56.310Z,100960.06
2018-12-30T20:47:22.678Z,100962.47
2018-12-30T20:49:48.724Z,100965.20
2018-12-30T20:52:14.957Z,100957.41
2018-12-30T20:54:41.014Z,100953.98
2018-12-30T20:57:07.043Z,100958.86
2018-12-30T20:59:33.130Z,100949.70
2018-12-30T21:01:59.435Z,100958.61
2018-12-30T21:04:25.889Z,100971.48
2018-12-30T21:06:52.014Z,100963.56
2018-12-30T21:09:18.442Z,100959.30
2018-12-30T21:11:44.870Z,100971.80
2018-12-30T21:14:10.958Z,100980.78
2018-12-30T21:16:37.042Z,100973.63
2018-12-30T21:19:03.070Z,100976.77
2018-12-30T21:21:29.612Z,100979.64
2018-12-30T21:23:55.849Z,100977.72
2018-12-30T21:26:22.433Z,100981.03
2018-12-30T21:28:48.510Z,100982.95
2018-12-30T21:31:15.514Z,100980.56
2018-12-30T21:33:41.868Z,100993.14
2018-12-30T21:36:07.873Z,100992.31
2018-12-30T21:38:34.035Z,100982.64
2018-12-30T21:41:00.378Z,100994.96
2018-12-30T21:43:26.521Z,100997.57
2018-12-30T21:45:52.562Z,100991.31
2018-12-30T21:48:19.013Z,100994.21
2018-12-30T21:50:45.566Z,100995.07
2018-12-30T21:53:11.587Z,101000.55
2018-12-30T21:55:37.706Z,100999.01
2018-12-30T21:58:03.799Z,101002.77
2018-12-30T22:00:31.010Z,100999.01
2018-12-30T22:02:57.097Z,100996.25
2018-12-30T22:05:25.918Z,100997.69
2018-12-30T22:07:52.074Z,101003.63
2018-12-30T22:10:18.195Z,101010.03
2018-12-30T22:12:44.880Z,101010.78
2018-12-30T22:15:10.956Z,101014.09
2018-12-30T22:17:37.044Z,101023.22
2018-12-30T22:20:03.468Z,101015.30
2018-12-30T22:22:29.567Z,101016.31
2018-12-30T22:24:55.761Z,101032.31
2018-12-30T22:27:21.909Z,101034.95
2018-12-30T22:29:50.110Z,101036.04
2018-12-30T22:32:16.456Z,101031.05
2018-12-30T22:34:42.764Z,101038.03
2018-12-30T22:37:08.930Z,101039.00
2018-12-30T22:39:35.392Z,101033.38
2018-12-30T22:42:04.862Z,101047.47
2018-12-30T22:44:32.139Z,101044.64
2018-12-30T22:46:58.205Z,101047.13
2018-12-30T22:49:24.596Z,101046.59
2018-12-30T22:51:50.724Z,101051.66
2018-12-30T22:54:16.810Z,101046.95
2018-12-30T22:56:43.367Z,101041.30
2018-12-30T22:59:09.439Z,101043.78
2018-12-30T23:01:35.907Z,101040.02
2018-12-30T23:04:02.039Z,101035.73
2018-12-30T23:06:28.494Z,101040.20
2018-12-30T23:08:54.605Z,101033.39
2018-12-30T23:11:20.682Z,101034.53
2018-12-30T23:13:46.720Z,101032.43
2018-12-30T23:16:12.846Z,101034.19
2018-12-30T23:18:39.332Z,101036.89
2018-12-30T23:21:07.075Z,101031.59
2018-12-30T23:23:33.152Z,101040.98
2018-12-30T23:25:59.527Z,101047.47
2018-12-30T23:28:26.006Z,101043.58
2018-12-30T23:30:52.016Z,101045.16
2018-12-30T23:33:18.426Z,101041.95
2018-12-30T23:35:44.846Z,101048.14
2018-12-30T23:38:10.928Z,101049.22
2018-12-30T23:40:37.016Z,101047.66
2018-12-30T23:43:03.433Z,101059.00
2018-12-30T23:45:29.448Z,101054.84
2018-12-30T23:47:55.568Z,101062.79
2018-12-30T23:50:21.653Z,101062.19
2018-12-30T23:52:47.719Z,101064.75
2018-12-30T23:55:13.747Z,101061.72
2018-12-30T23:57:39.863Z,101060.80
